• Join FlightAware (Why Join?)
  • Login
  • US Flag 
07:42PM EST


 

Airport Tracker/Info


-or-


 

Live Flight TrackerFlight Track Log ✈ UAL6858 ✈ 24-Aug-2013 ✈ KORD - KDEN

Flight Track Log - Related Links

Times and Time Zones

All times are in EDT time to prevent confusion due to time zone crossing. See the UAL6858 flight status page for this flight to view local times or setup timezone preferences in your user account.

Time Position Orientation Groundspeed Altitude Reporting Facility
EDT Latitude Longitude Course Direction KTS MPH feet Rate Location/Type
12:27PM 41.9781 -87.8925 191° South 171 197 1,900  Level Chicago Center
12:28PM 41.9500 -87.9000 191° South 227 261 3,700 3,780 Climbing Chicago TRACON
12:29PM 41.9128 -88.0197 247° West 275 316 9,800 3,480 Climbing Chicago Center
12:30PM 41.9103 -88.1361 268° West 309 356 12,600 2,460 Climbing Chicago Center
12:31PM 41.9075 -88.2706 268° West 356 410 14,900 2,700 Climbing Chicago Center
12:32PM 41.9039 -88.4339 268° West 367 422 18,300 3,480 Climbing Chicago Center
12:34PM 41.8917 -88.5767 263° West 382 440 22,200 2,220 Climbing Chicago Center
12:35PM 41.8775 -88.7228 263° West 397 457 23,000 900 Climbing Chicago Center
12:36PM 41.8656 -88.8742 264° West 409 471 24,100 1,560 Climbing Chicago Center
12:37PM 41.8561 -89.0278 265° West 416 479 26,300 2,460 Climbing Chicago Center
12:38PM 41.8436 -89.2233 265° West 439 505 29,200 2,460 Climbing Chicago Center
12:39PM 41.8325 -89.3931 265° West 456 525 31,500 2,280 Climbing Chicago Center
12:40PM 41.8303 -89.5586 269° West 450 518 34,000 2,220 Climbing Chicago Center
12:41PM 41.8253 -89.7239 268° West 447 514 36,100 2,040 Climbing Chicago Center
12:42PM 41.8169 -89.8867 266° West 442 509 38,300 1,740 Climbing Chicago Center
12:43PM 41.8100 -90.0561 267° West 436 502 39,800 780 Climbing Chicago Center
12:44PM 41.8006 -90.2186 266° West 438 504 40,000 60 Climbing Chicago Center
12:45PM 41.7886 -90.4189 265° West 450 518 40,000  Level Chicago Center
12:46PM 41.7794 -90.5819 266° West 445 512 40,000  Level Chicago Center
12:47PM 41.7678 -90.7461 265° West 445 512 40,000  Level Chicago Center
12:48PM 41.7589 -90.9100 266° West 446 513 40,000  Level Chicago Center
12:49PM 41.7489 -91.0744 265° West 446 513 40,000  Level Chicago Center
12:50PM 41.7392 -91.2700 266° West 442 509 40,000  Level Chicago Center
12:51PM 41.7289 -91.4300 265° West 437 503 40,000  Level Chicago Center
12:52PM 41.7186 -91.5914 265° West 436 502 40,000  Level Chicago Center
12:53PM 41.7083 -91.7517 265° West 435 501 40,000  Level Chicago Center
12:54PM 41.6958 -91.9097 264° West 432 497 40,000  Level Chicago Center
12:55PM 41.6839 -92.0725 264° West 437 503 40,000  Level Chicago Center
12:56PM 41.6692 -92.2656 264° West 437 503 40,000  Level Chicago Center
12:57PM 41.6578 -92.4247 265° West 433 498 40,000  Level Chicago Center
12:58PM 41.6478 -92.5856 265° West 435 501 40,000  Level Chicago Center
12:59PM 41.6375 -92.7117 264° West 434 499 40,000  Level Minneapolis Center
01:00PM 41.6283 -92.8383 265° West 433 498 40,000  Level Minneapolis Center
01:01PM 41.6097 -93.0611 264° West 434 499 40,000  Level Minneapolis Center
01:02PM 41.5967 -93.2194 264° West 435 501 40,000  Level Minneapolis Center
01:03PM 41.5850 -93.3747 264° West 429 494 40,000  Level Minneapolis Center
01:04PM 41.5714 -93.5308 263° West 429 494 40,000  Level Minneapolis Center
01:06PM 41.5569 -93.7172 264° West 426 490 40,000  Level Minneapolis Center
01:07PM 41.5400 -93.9064 263° West 431 496 40,000  Level Minneapolis Center
01:08PM 41.5264 -94.0647 264° West 433 498 40,000  Level Minneapolis Center
01:09PM 41.5128 -94.2228 263° West 433 498 40,000  Level Minneapolis Center
01:10PM 41.4928 -94.4075 262° West 431 496 40,000  Level Minneapolis Center
01:11PM 41.4783 -94.5661 263° West 429 494 40,000  Level Minneapolis Center
01:12PM 41.4633 -94.7267 263° West 433 498 40,000  Level Minneapolis Center
01:13PM 41.4425 -94.9158 262° West 429 494 40,000  Level Minneapolis Center
01:14PM 41.4292 -95.0731 264° West 428 493 40,000  Level Minneapolis Center
01:15PM 41.4150 -95.2333 263° West 433 498 40,000  Level Minneapolis Center
01:16PM 41.3950 -95.4225 262° West 432 497 40,000  Level Minneapolis Center
01:17PM 41.3786 -95.5800 262° West 431 496 40,000  Level Minneapolis Center
01:18PM 41.3661 -95.7042 262° West 432 497 40,000  Level Minneapolis Center
01:19PM 41.3481 -95.8950 263° West 434 499 40,000  Level Minneapolis Center
01:20PM 41.3314 -96.0531 262° West 432 497 40,000  Level Minneapolis Center
01:21PM 41.3169 -96.1800 261° West 433 498 40,000  Level Minneapolis Center
01:22PM 41.2939 -96.3878 262° West 433 498 40,000  Level Minneapolis Center
01:23PM 41.2761 -96.5461 262° West 433 498 40,000  Level Minneapolis Center
01:24PM 41.2581 -96.7039 261° West 433 498 40,000  Level Minneapolis Center
01:25PM 41.2358 -96.8939 261° West 433 498 40,000  Level Minneapolis Center
01:26PM 41.2181 -97.0528 262° West 435 501 40,000  Level Minneapolis Center
01:27PM 41.1997 -97.2125 261° West 437 503 40,000  Level Minneapolis Center
01:28PM 41.1808 -97.3722 261° West 438 504 40,000  Level Minneapolis Center
01:30PM 41.1603 -97.5461 261° West 438 504 40,000  Level Minneapolis Center
01:31PM 41.1375 -97.7375 261° West 437 503 40,000  Level Minneapolis Center
01:32PM 41.1178 -97.8983 261° West 440 506 40,000  Level Minneapolis Center
01:33PM 41.0978 -98.0589 261° West 441 507 40,000  Level Minneapolis Center
01:34PM 41.0772 -98.2189 260° West 440 506 40,000  Level Minneapolis Center
01:35PM 41.0572 -98.3800 261° West 441 507 40,000  Level Minneapolis Center
01:36PM 41.0383 -98.5544 262° West 438 504 40,000  Level Minneapolis Center
01:37PM 41.0178 -98.7128 260° West 437 503 40,000  Level Minneapolis Center
01:38PM 40.9992 -98.8753 261° West 446 513 40,000  Level Minneapolis Center
01:39PM 40.9803 -99.0667 263° West 440 506 40,000  Level Minneapolis Center
01:40PM 40.9631 -99.2217 262° West 435 501 40,000  Level Minneapolis Center
01:41PM 40.9444 -99.3808 261° West 436 502 40,000  Level Minneapolis Center
01:42PM 40.9258 -99.5400 261° West 438 504 40,000  Level Minneapolis Center
01:43PM 40.9069 -99.6986 261° West 438 504 40,000  Level Minneapolis Center
01:44PM 40.8844 -99.8567 259° West 437 503 40,000 -540 Level Minneapolis Center
01:45PM 40.8553 -100.0431 258° West 435 501 38,900 -1,020 Descending Minneapolis Center
01:46PM 40.8319 -100.1961 259° West 430 495 38,000 -480 Descending Minneapolis Center
01:47PM 40.8078 -100.3492 258° West 427 491 38,000  Level Minneapolis Center
01:48PM 40.7842 -100.5033 259° West 427 491 38,000  Level Minneapolis Center
01:50PM 40.7450 -100.7072 256° West 435 501 38,000  Level Denver Center
01:51PM 40.7222 -100.8628 259° West 439 505 38,000  Level Denver Center
01:52PM 40.6942 -101.0361 258° West 431 496 38,000  Level Denver Center
01:53PM 40.6714 -101.1828 258° West 427 491 38,000  Level Denver Center
01:54PM 40.6439 -101.3531 258° West 427 491 38,000  Level Denver Center
01:55PM 40.6194 -101.4997 258° West 428 493 38,000  Level Denver Center
01:56PM 40.5906 -101.6708 258° West 429 494 38,000  Level Denver Center
01:57PM 40.5656 -101.8183 257° West 431 496 38,000 -60 Level Denver Center
01:58PM 40.5381 -101.9914 258° West 433 498 37,900 -420 Descending Denver Center
01:59PM 40.5133 -102.1358 257° West 424 488 37,200 -780 Descending Denver Center
02:00PM 40.4856 -102.3028 258° West 419 482 36,300 -780 Descending Denver Center
02:01PM 40.4597 -102.4444 257° West 416 479 35,700 -600 Descending Denver Center
02:02PM 40.4339 -102.5828 256° West 409 471 35,100 -720 Descending Denver Center
02:03PM 40.4064 -102.7394 257° West 403 464 34,300 -780 Descending Denver Center
02:04PM 40.3811 -102.8794 257° West 397 457 33,600 -600 Descending Denver Center
02:05PM 40.3561 -103.0175 257° West 392 451 33,000 -660 Descending Denver Center
02:06PM 40.3261 -103.1842 257° West 392 451 32,200 -1,500 Descending Denver Center
02:07PM 40.2969 -103.3439 257° West 377 434 29,900 -2,040 Descending Denver Center
02:08PM 40.2725 -103.4756 256° West 372 428 28,000 -2,520 Descending Denver Center
02:10PM 40.2475 -103.6064 256° West 372 428 24,700 -3,000 Descending Denver Center
02:11PM 40.2203 -103.7519 256° West 398 458 21,900 -1,800 Descending Denver Center
02:12PM 40.1836 -103.8875 251° West 363 418 21,100 -960 Descending Denver Center
02:13PM 40.1367 -103.9925 240° Southwest 333 383 20,000 -1,620 Descending Denver Center
02:14PM 40.0853 -104.1000 238° Southwest 323 372 17,800 -2,040 Descending Denver Center
02:15PM 40.0408 -104.1975 239° Southwest 315 362 15,800 -1,620 Descending Denver Center
02:16PM 39.9942 -104.2981 239° Southwest 304 350 14,500 -1,140 Descending Denver Center
02:17PM 39.9517 -104.3894 239° Southwest 297 342 13,500 -1,020 Descending Denver Center
02:18PM 39.9167 -104.4667 239° Southwest 293 337 12,600 -1,200 Descending Denver TRACON
02:19PM 39.8500 -104.5000 201° Southwest 280 322 11,300 -1,080 Descending Denver TRACON
02:20PM 39.7833 -104.5000 180° South 241 277 10,500 -1,080 Descending Denver TRACON
02:21PM 39.7167 -104.5000 180° South 243 280 9,200 -1,320 Descending Denver TRACON
02:22PM 39.6833 -104.5667 237° Southwest 246 283 7,900 -900 Descending Denver TRACON
02:22PM 39.7167 -104.6167 311° West 211 243 7,500 -600 Descending Denver TRACON
02:23PM 39.7667 -104.6500 333° Northwest 178 205 6,800 -780 Descending Denver TRACON
02:24PM 39.8000 -104.6500 360° North 132 152 6,000 -780 Descending Denver TRACON
02:25PM 39.8175 -104.6417 20° North 137 158 5,700 -420 Descending Denver Center
02:26PM 39.8497 -104.6411 North 114 131 5,400 -300 Descending Denver Center
02:28PM 39.8500 -104.6667 339° North  Level FlightAware Approximate
02:35PM 39.8617 -104.6732 339° North  Level Estimated
02:36PM 39.8617 -104.6732 339° North  Level Estimated
02:37PM 39.8617 -104.6732 339° North  Level Estimated